Wappingers Falls, NY (12590)

4:21 PM EST on January 25, 2015 (GMT -0500)
Vitek Backyard | Change Station
CLOSE
Current Station
Personal Weather Station
Location: Hopewell Junction, NY
Elevation: 266 ft
Nearby Weather Stations
Active Advisory: Winter Storm Warning

Elev 266 ft 41.59 °N, 73.83 °W | Updated 24 minutes ago

Clear
Clear
38.8 °F
Feels Like 36 °F
N
3.7
Wind Variable Wind from West

Today
High -- | Low -- °F
--% Chance of Precip.
Yesterday
High -- | Low -- °F
Precip. -- in
7:13 AM 5:02 PM
Waxing Crescent, 36% visible
Pressure 29.81 in
Visibility 10.0 miles
Clouds Clear
Windchill 36 °F
Dew Point 11 °F
Humidity 31%
Rainfall 0.02 in
Snow Depth Not available.
UV 1 out of 12
Pollen .10 out of 12
Air Quality Not available.
Flu Activity Not available.
METAR KPOU 252053Z 28007KT 10SM CLR 02/M13 A2981 RMK AO2 SLP093 T00171128 53016

More Conditions Fewer Conditions

Pressure 29.81 in
Visibility 10.0 miles
Clouds Clear
Windchill 36 °F
Dew Point 11 °F
Humidity 31%
Rainfall 0.02 in
Snow Depth Not available.
UV 1 out of 12
Pollen .10 out of 12
Air Quality Not available.
Flu Activity Not available.
METAR KPOU 252053Z 28007KT 10SM CLR 02/M13 A2981 RMK AO2 SLP093 T00171128 53016

More Conditions Fewer Conditions

10-Day Weather Forecast

Almanac

Astronomy

Jan. 25, 2015 Rise Set
Actual Time
Civil Twilight
Nautical Twilight
Astronomical Twilight
Moon
Length of Visible Light
Length of Day
Tomorrow will be .
, % of the Moon is Illuminated

Today's Extremes

State Highs State Lows

Community

WunderPhotos

Upload Photos

1,790,052 photos uploaded!

WunderBlogs® & News

Nearby

Air Quality

  Air Quality AQ Index Pollutant
Not available.

Snow Depth

Station Depth Elevation

Earthquake Activity

City Distance Mag. Time & Date
Minimum magnitude displayed is 2.5.

Coastal Water Temperatures

Place Temperature

Nearby Weather Stations